KTWF

Joslin Field - Magic Valley Regional Airport

Twin Falls, Idaho, USA
KTWF 251120Z 2512/2612 22008KT P6SM SKC FM251900 32008KT P6SM SKC FM260300 19007KT P6SM SKC
Issued Valid From Valid To
Sep-25 @ 11:20 UTC
(4 hours ago)
Sep-25 @ 12:00 UTC
(4 hours ago)
Sep-26 @ 12:00 UTC
(in 20 hours)
Sep-25 @ 12:00 to Sep-25 @ 19:00
KTWF 251120Z 2512/2612 22008KT P6SM SKC
Wind Visibility Clouds
220° at 8 knots Greater than 6 miles
  • Clear skies
From Sep-25 @ 19:00 to Sep-26 @ 03:00
FM251900 32008KT P6SM SKC
Wind Visibility Clouds
320° at 8 knots Greater than 6 miles
  • Clear skies
From Sep-26 @ 03:00 to Sep-26 @ 12:00
FM260300 19007KT P6SM SKC
Wind Visibility Clouds
190° at 7 knots Greater than 6 miles
  • Clear skies
KTWF 251120Z 2512/2612 22008KT P6SM SKC FM251900 32008KT P6SM SKC FM260300 19007KT P6SM SKC
Issued Sep-25 @ 11:20 UTC
(4 hours ago)
Valid From Sep-25 @ 12:00 UTC
(4 hours ago)
Valid To Sep-26 @ 12:00 UTC
(in 20 hours)
Sep-25 @ 12:00 - Sep-25 @ 19:00
Wind Visibility
220° at 8 knots Greater than 6 miles
Clouds
  • Clear skies
From Sep-25 @ 19:00 - Sep-26 @ 03:00
Wind Visibility
320° at 8 knots Greater than 6 miles
Clouds
  • Clear skies
From Sep-26 @ 03:00 - Sep-26 @ 12:00
Wind Visibility
190° at 7 knots Greater than 6 miles
Clouds
  • Clear skies